createdAt,value
2023-05-17T00:00:56.619Z,25.00
2023-05-17T00:01:56.667Z,0.00
2023-05-17T00:02:56.698Z,0.00
2023-05-17T00:03:56.752Z,0.00
2023-05-17T00:04:56.741Z,0.00
2023-05-17T00:05:56.786Z,0.00
2023-05-17T00:06:56.756Z,0.00
2023-05-17T00:07:56.774Z,0.00
2023-05-17T00:08:56.802Z,14.08
2023-05-17T00:09:56.839Z,25.81
2023-05-17T00:10:56.880Z,26.12
2023-05-17T00:11:57.010Z,28.51
2023-05-17T00:12:56.934Z,25.49
2023-05-17T00:13:56.996Z,25.00
2023-05-17T00:14:57.004Z,26.77
2023-05-17T00:15:57.031Z,25.00
2023-05-17T00:16:57.056Z,25.70
2023-05-17T00:17:57.353Z,28.09
2023-05-17T00:18:57.235Z,25.00
2023-05-17T00:19:57.216Z,27.99
2023-05-17T00:20:57.190Z,25.00
2023-05-17T00:21:57.214Z,24.97
2023-05-17T00:22:57.248Z,27.49
2023-05-17T00:23:57.271Z,25.14
2023-05-17T00:24:57.295Z,25.00
2023-05-17T00:25:57.317Z,27.26
2023-05-17T00:26:57.343Z,26.35
2023-05-17T00:27:57.476Z,25.00
2023-05-17T00:28:57.410Z,25.00
2023-05-17T00:29:57.438Z,30.66
2023-05-17T00:30:57.466Z,28.03
2023-05-17T00:31:57.497Z,27.67
2023-05-17T00:32:57.598Z,28.49
2023-05-17T00:33:57.567Z,28.15
2023-05-17T00:34:57.595Z,27.94
2023-05-17T00:35:57.604Z,26.33
2023-05-17T00:36:57.608Z,25.72
2023-05-17T00:37:57.631Z,24.92
2023-05-17T00:38:57.664Z,28.32
2023-05-17T00:39:57.741Z,26.04
2023-05-17T00:40:57.715Z,25.00
2023-05-17T00:41:57.736Z,27.78
2023-05-17T00:42:57.745Z,26.86
2023-05-17T00:43:57.911Z,25.10
2023-05-17T00:44:57.792Z,27.68
2023-05-17T00:45:58.587Z,25.76
2023-05-17T00:46:57.851Z,28.16
2023-05-17T00:47:58.007Z,26.76
2023-05-17T00:48:57.926Z,25.53
2023-05-17T00:49:57.948Z,27.35
2023-05-17T00:50:57.967Z,28.11
2023-05-17T00:51:57.965Z,26.23
2023-05-17T00:52:58.013Z,28.00
2023-05-17T00:53:58.047Z,28.77
2023-05-17T00:54:58.081Z,26.69
2023-05-17T00:55:58.137Z,27.19
2023-05-17T00:56:58.145Z,27.64
2023-05-17T00:57:58.181Z,26.48
2023-05-17T00:59:05.195Z,27.28
2023-05-17T00:59:58.206Z,27.81
2023-05-17T01:00:58.234Z,27.95
2023-05-17T01:01:58.212Z,27.99
2023-05-17T01:02:58.251Z,27.67
2023-05-17T01:03:58.270Z,24.96
2023-05-17T01:04:58.261Z,25.51
2023-05-17T01:05:58.169Z,27.99
2023-05-17T01:06:58.154Z,27.75
2023-05-17T01:07:58.157Z,25.64
2023-05-17T01:08:58.168Z,29.18
2023-05-17T01:09:58.143Z,27.55
2023-05-17T01:10:58.206Z,27.73
2023-05-17T01:11:58.154Z,28.32
2023-05-17T01:12:58.191Z,27.08
2023-05-17T01:13:58.208Z,27.24
2023-05-17T01:14:58.274Z,27.44
2023-05-17T01:15:58.295Z,28.47
2023-05-17T01:16:58.313Z,28.84
2023-05-17T01:17:58.418Z,25.16
2023-05-17T01:18:58.539Z,24.48
2023-05-17T01:19:58.583Z,30.97
2023-05-17T01:20:58.420Z,29.28
2023-05-17T01:21:58.436Z,26.40
2023-05-17T01:22:58.462Z,28.13
2023-05-17T01:23:58.498Z,28.33
2023-05-17T01:24:58.534Z,27.00
2023-05-17T01:25:58.567Z,27.17
2023-05-17T01:26:58.567Z,25.80
2023-05-17T01:27:58.586Z,25.96
2023-05-17T01:28:58.587Z,26.88
2023-05-17T01:29:58.592Z,29.01
2023-05-17T01:30:58.713Z,25.70
2023-05-17T01:31:58.616Z,27.42
2023-05-17T01:32:58.653Z,27.38
2023-05-17T01:33:58.768Z,25.50
2023-05-17T01:34:58.654Z,28.12
2023-05-17T01:35:58.682Z,27.20
2023-05-17T01:36:58.733Z,26.65
2023-05-17T01:37:58.753Z,28.90
2023-05-17T01:38:58.768Z,26.64
2023-05-17T01:39:58.774Z,27.31
2023-05-17T01:40:58.799Z,25.57
2023-05-17T01:41:58.822Z,31.73
2023-05-17T01:42:58.852Z,31.17
2023-05-17T01:43:58.894Z,30.10
2023-05-17T01:44:58.925Z,29.74
2023-05-17T01:45:58.937Z,28.92
2023-05-17T01:46:59.069Z,28.78
2023-05-17T01:47:59.048Z,28.89
2023-05-17T01:48:59.007Z,27.11
2023-05-17T01:49:59.030Z,28.91
2023-05-17T01:50:59.038Z,28.77
2023-05-17T01:51:59.064Z,29.28
2023-05-17T01:52:59.076Z,27.98
2023-05-17T01:53:59.106Z,26.72
2023-05-17T01:54:59.131Z,27.55
2023-05-17T01:55:59.153Z,29.10
2023-05-17T01:56:59.157Z,29.46
2023-05-17T01:57:59.189Z,30.09
2023-05-17T01:58:59.243Z,31.39
2023-05-17T01:59:59.237Z,28.31
2023-05-17T02:00:59.268Z,27.52
2023-05-17T02:01:59.291Z,28.54
2023-05-17T02:02:59.485Z,26.25
2023-05-17T02:03:59.341Z,27.16
2023-05-17T02:04:59.379Z,28.89
2023-05-17T02:05:59.329Z,24.34
2023-05-17T02:06:59.337Z,30.00
2023-05-17T02:07:59.360Z,28.73
2023-05-17T02:08:59.369Z,28.25
2023-05-17T02:09:59.390Z,28.01
2023-05-17T02:10:59.409Z,30.18
2023-05-17T02:11:59.441Z,31.73
2023-05-17T02:12:59.442Z,28.35
2023-05-17T02:13:59.475Z,25.74
2023-05-17T02:14:59.511Z,27.55
2023-05-17T02:15:59.522Z,28.70
2023-05-17T02:16:59.547Z,28.72
2023-05-17T02:17:59.653Z,28.24
2023-05-17T02:18:59.726Z,27.22
2023-05-17T02:19:59.624Z,29.08
2023-05-17T02:20:59.654Z,26.59
2023-05-17T02:21:59.677Z,27.53
2023-05-17T02:22:59.708Z,26.29
2023-05-17T02:23:59.728Z,26.66
2023-05-17T02:24:59.754Z,27.24
2023-05-17T02:25:59.760Z,30.04
2023-05-17T02:26:59.792Z,29.89
2023-05-17T02:27:59.819Z,27.17
2023-05-17T02:28:59.853Z,27.90
2023-05-17T02:29:59.858Z,28.28
2023-05-17T02:30:59.882Z,28.45
2023-05-17T02:31:59.908Z,25.01
2023-05-17T02:33:00.672Z,27.54
2023-05-17T02:34:00.113Z,25.93
2023-05-17T02:35:00.067Z,26.79
2023-05-17T02:35:59.995Z,27.15
2023-05-17T02:37:00.037Z,26.49
2023-05-17T02:38:00.074Z,25.63
2023-05-17T02:39:00.051Z,31.06
2023-05-17T02:40:00.049Z,28.52
2023-05-17T02:41:00.091Z,26.90
2023-05-17T02:42:00.123Z,27.37
2023-05-17T02:43:00.131Z,26.91
2023-05-17T02:44:00.157Z,27.22
2023-05-17T02:45:00.186Z,27.23
2023-05-17T02:46:00.205Z,29.11
2023-05-17T02:47:00.258Z,29.52
2023-05-17T02:48:00.268Z,28.98
2023-05-17T02:49:00.275Z,29.09
2023-05-17T02:50:00.300Z,29.22
2023-05-17T02:51:00.623Z,26.96
2023-05-17T02:52:00.389Z,26.12
2023-05-17T02:53:00.388Z,26.47
2023-05-17T02:54:00.412Z,26.88
2023-05-17T02:55:00.457Z,27.29
2023-05-17T02:56:00.508Z,29.78
2023-05-17T02:57:00.486Z,30.37
2023-05-17T02:58:00.507Z,30.11
2023-05-17T02:59:00.543Z,30.43
2023-05-17T03:00:00.589Z,28.45
2023-05-17T03:01:00.579Z,27.87
2023-05-17T03:02:00.609Z,31.02
2023-05-17T03:03:00.722Z,31.95
2023-05-17T03:04:00.848Z,31.16
2023-05-17T03:05:00.655Z,29.14
2023-05-17T03:06:00.687Z,30.42
2023-05-17T03:07:00.807Z,29.18
2023-05-17T03:08:00.721Z,26.40
2023-05-17T03:09:00.752Z,28.86
2023-05-17T03:10:00.766Z,27.64
2023-05-17T03:11:00.800Z,29.69
2023-05-17T03:12:00.828Z,26.73
2023-05-17T03:13:00.837Z,30.35
2023-05-17T03:14:00.831Z,25.00
2023-05-17T03:15:00.835Z,29.34
2023-05-17T03:16:00.853Z,28.03
2023-05-17T03:17:00.859Z,29.21
2023-05-17T03:18:01.019Z,27.81
2023-05-17T03:19:01.108Z,29.74
2023-05-17T03:20:00.920Z,29.76
2023-05-17T03:21:00.951Z,26.73
2023-05-17T03:22:00.988Z,25.00
2023-05-17T03:23:01.010Z,28.70
2023-05-17T03:24:01.032Z,28.14
2023-05-17T03:25:01.057Z,27.44
2023-05-17T03:26:01.102Z,27.65
2023-05-17T03:27:01.127Z,29.77
2023-05-17T03:28:01.153Z,27.64
2023-05-17T03:29:01.169Z,25.63
2023-05-17T03:30:01.188Z,26.89
2023-05-17T03:31:01.234Z,28.97
2023-05-17T03:32:01.192Z,29.36
2023-05-17T03:33:01.270Z,31.44
2023-05-17T03:34:01.405Z,26.25
2023-05-17T03:35:01.248Z,29.14
2023-05-17T03:36:01.255Z,26.14
2023-05-17T03:37:01.286Z,28.08
2023-05-17T03:38:01.302Z,28.11
2023-05-17T03:39:01.554Z,25.50
2023-05-17T03:40:01.363Z,25.00
2023-05-17T03:41:01.431Z,25.80
2023-05-17T03:42:01.412Z,25.00
2023-05-17T03:43:01.480Z,29.84
2023-05-17T03:44:01.482Z,31.64
2023-05-17T03:45:01.493Z,30.11
2023-05-17T03:46:01.531Z,29.69
2023-05-17T03:47:01.557Z,31.53
2023-05-17T03:48:01.606Z,31.35
2023-05-17T03:49:01.668Z,29.41
2023-05-17T03:50:01.639Z,31.04
2023-05-17T03:51:01.652Z,28.41
2023-05-17T03:52:01.678Z,25.87
2023-05-17T03:53:01.685Z,26.83
2023-05-17T03:54:01.721Z,28.32
2023-05-17T03:55:01.736Z,29.58
2023-05-17T03:56:01.738Z,27.54
2023-05-17T03:57:01.768Z,27.33
2023-05-17T03:58:01.785Z,26.44
2023-05-17T03:59:01.812Z,25.00
2023-05-17T04:00:01.856Z,25.62
2023-05-17T04:01:01.869Z,27.49
2023-05-17T04:02:01.894Z,28.24
2023-05-17T04:03:01.984Z,27.64
2023-05-17T04:04:01.970Z,26.50
2023-05-17T04:05:02.009Z,25.22
2023-05-17T04:06:01.960Z,26.77
2023-05-17T04:07:01.986Z,30.50
2023-05-17T04:08:01.964Z,29.03
2023-05-17T04:09:01.958Z,28.85
2023-05-17T04:10:02.031Z,29.62
2023-05-17T04:11:01.993Z,28.83
2023-05-17T04:12:01.963Z,28.27
2023-05-17T04:13:01.999Z,27.57
2023-05-17T04:14:01.979Z,27.23
2023-05-17T04:15:02.010Z,28.35
2023-05-17T04:16:02.037Z,27.12
2023-05-17T04:17:02.061Z,24.98
2023-05-17T04:18:02.148Z,28.35
2023-05-17T04:19:02.238Z,26.57
2023-05-17T04:20:02.245Z,29.69
2023-05-17T04:21:02.211Z,28.72
2023-05-17T04:22:02.204Z,27.38
2023-05-17T04:23:02.210Z,27.20
2023-05-17T04:24:02.211Z,26.17
2023-05-17T04:25:02.250Z,26.52
2023-05-17T04:26:02.271Z,27.69
2023-05-17T04:27:03.593Z,27.15
2023-05-17T04:28:02.321Z,28.07
2023-05-17T04:29:02.361Z,26.98
2023-05-17T04:30:02.393Z,29.48
2023-05-17T04:31:02.392Z,31.03
2023-05-17T04:32:02.411Z,25.00
2023-05-17T04:33:02.488Z,26.58
2023-05-17T04:34:02.580Z,31.34
2023-05-17T04:35:02.477Z,28.12
2023-05-17T04:36:02.517Z,28.47
2023-05-17T04:37:02.538Z,26.29
2023-05-17T04:38:02.562Z,26.33
2023-05-17T04:39:02.592Z,26.56
2023-05-17T04:40:02.632Z,27.76
2023-05-17T04:41:02.661Z,28.93
2023-05-17T04:42:02.676Z,27.09
2023-05-17T04:43:02.837Z,29.53
2023-05-17T04:44:02.717Z,29.90
2023-05-17T04:45:02.720Z,32.32
2023-05-17T04:46:02.778Z,26.35
2023-05-17T04:47:02.798Z,28.45
2023-05-17T04:48:02.916Z,27.80
2023-05-17T04:49:02.903Z,30.11
2023-05-17T04:50:02.875Z,31.00
2023-05-17T04:51:02.906Z,27.19
2023-05-17T04:52:05.397Z,27.54
2023-05-17T04:53:02.917Z,27.78
2023-05-17T04:54:02.905Z,28.27
2023-05-17T04:55:02.902Z,27.69
2023-05-17T04:56:02.893Z,27.61
2023-05-17T04:57:02.895Z,30.21
2023-05-17T04:58:02.883Z,28.58
2023-05-17T04:59:03.041Z,28.80
2023-05-17T05:00:02.870Z,26.97
2023-05-17T05:01:02.859Z,26.78
2023-05-17T05:02:02.858Z,27.56
2023-05-17T05:03:02.949Z,28.90
2023-05-17T05:04:02.992Z,29.01
2023-05-17T05:05:02.903Z,29.70
2023-05-17T05:06:02.833Z,26.65
2023-05-17T05:07:02.830Z,26.20
2023-05-17T05:08:02.823Z,29.09
2023-05-17T05:09:02.818Z,27.19
2023-05-17T05:10:03.684Z,27.71
2023-05-17T05:11:02.818Z,29.07
2023-05-17T05:12:02.797Z,28.98
2023-05-17T05:13:03.185Z,28.75
2023-05-17T05:14:02.779Z,25.88
2023-05-17T05:15:02.935Z,27.24
2023-05-17T05:16:02.777Z,28.68
2023-05-17T05:17:02.770Z,25.00
2023-05-17T05:18:03.298Z,32.07
2023-05-17T05:19:02.986Z,27.81
2023-05-17T05:20:02.793Z,26.76
2023-05-17T05:21:02.738Z,27.57
2023-05-17T05:22:02.749Z,30.31
2023-05-17T05:23:03.193Z,32.01
2023-05-17T05:24:02.719Z,31.37
2023-05-17T05:25:03.224Z,29.83
2023-05-17T05:26:02.710Z,32.45
2023-05-17T05:27:04.377Z,36.41
2023-05-17T05:28:02.697Z,38.88
2023-05-17T05:29:02.688Z,35.64
2023-05-17T05:30:02.693Z,33.87
2023-05-17T05:31:02.790Z,32.43
2023-05-17T05:32:02.663Z,33.72
2023-05-17T05:33:02.855Z,36.80
2023-05-17T05:34:02.828Z,34.70
2023-05-17T05:35:02.649Z,31.85
2023-05-17T05:36:02.632Z,32.09
2023-05-17T05:37:02.634Z,31.77
2023-05-17T05:38:02.660Z,33.39
2023-05-17T05:39:02.637Z,32.28
2023-05-17T05:40:02.613Z,32.96
2023-05-17T05:41:02.601Z,34.15
2023-05-17T05:42:02.639Z,35.38
2023-05-17T05:43:02.758Z,37.31
2023-05-17T05:44:02.583Z,39.52
2023-05-17T05:45:02.582Z,39.02
2023-05-17T05:46:02.574Z,39.73
2023-05-17T05:47:02.853Z,35.76
2023-05-17T05:48:02.857Z,39.00
2023-05-17T05:49:02.767Z,42.34
2023-05-17T05:50:02.538Z,39.98
2023-05-17T05:51:02.529Z,37.51
2023-05-17T05:52:02.524Z,35.87
2023-05-17T05:53:17.188Z,35.49
2023-05-17T05:54:09.933Z,36.08
2023-05-17T05:55:10.114Z,36.49
2023-05-17T05:56:02.526Z,36.82
2023-05-17T05:57:02.514Z,40.49
2023-05-17T05:58:02.487Z,45.92
2023-05-17T05:59:02.478Z,52.18
2023-05-17T06:00:02.504Z,69.54
2023-05-17T06:01:05.338Z,77.29
2023-05-17T06:02:02.450Z,77.80
2023-05-17T06:03:03.163Z,78.78
2023-05-17T06:04:18.043Z,81.67
2023-05-17T06:05:02.443Z,78.23
2023-05-17T06:06:09.885Z,81.56
2023-05-17T06:07:02.459Z,78.73
2023-05-17T06:08:02.720Z,83.52
2023-05-17T06:09:02.427Z,92.72
2023-05-17T06:10:02.399Z,105.61
2023-05-17T06:11:03.388Z,121.19
2023-05-17T06:12:02.427Z,122.76
2023-05-17T06:13:02.719Z,122.63
2023-05-17T06:14:02.388Z,122.12
2023-05-17T06:15:02.386Z,125.89
2023-05-17T06:16:09.761Z,124.98
2023-05-17T06:17:02.367Z,125.60
2023-05-17T06:18:02.849Z,127.66
2023-05-17T06:19:02.565Z,132.13
2023-05-17T06:20:02.414Z,137.79
2023-05-17T06:21:02.355Z,148.81
2023-05-17T06:22:02.371Z,150.46
2023-05-17T06:23:02.722Z,150.12
2023-05-17T06:24:04.943Z,153.23
2023-05-17T06:25:02.324Z,153.50
2023-05-17T06:26:02.532Z,154.41
2023-05-17T06:27:02.298Z,158.89
2023-05-17T06:28:03.030Z,165.86
2023-05-17T06:29:02.307Z,175.92
2023-05-17T06:30:04.851Z,176.07
2023-05-17T06:31:02.718Z,176.42
2023-05-17T06:32:02.281Z,177.28
2023-05-17T06:33:02.834Z,180.40
2023-05-17T06:34:02.362Z,184.90
2023-05-17T06:35:02.450Z,189.53
2023-05-17T06:37:01.245Z,193.32
2023-05-17T06:38:02.727Z,198.31
2023-05-17T06:39:02.365Z,202.13
2023-05-17T06:40:10.319Z,201.38
2023-05-17T06:41:02.419Z,201.94
2023-05-17T06:42:02.410Z,203.85
2023-05-17T06:43:02.721Z,206.80
2023-05-17T06:44:02.437Z,213.73
2023-05-17T06:45:05.566Z,218.24
2023-05-17T06:46:02.720Z,202.31
2023-05-17T06:47:02.436Z,205.16
2023-05-17T06:48:02.813Z,209.84
2023-05-17T06:49:02.678Z,216.15
2023-05-17T06:50:02.344Z,225.09
2023-05-17T06:51:09.821Z,223.42
2023-05-17T06:52:09.741Z,223.83
2023-05-17T06:53:02.754Z,224.01
2023-05-17T06:54:09.765Z,225.26
2023-05-17T06:55:02.375Z,224.07
2023-05-17T06:57:17.908Z,224.08
2023-05-17T06:58:05.489Z,224.29
2023-05-17T06:59:03.137Z,224.33
2023-05-17T07:00:02.270Z,225.24
2023-05-17T07:01:09.678Z,224.92
2023-05-17T07:02:05.461Z,223.93
2023-05-17T07:03:10.217Z,223.97
2023-05-17T07:04:02.365Z,224.10
2023-05-17T07:06:34.297Z,224.04
2023-05-17T07:07:02.781Z,224.16
2023-05-17T07:08:05.552Z,223.89
2023-05-17T07:09:03.198Z,223.85
2023-05-17T07:10:02.216Z,223.80
2023-05-17T07:11:02.191Z,220.61
2023-05-17T07:12:02.176Z,217.92
2023-05-17T07:13:02.695Z,218.02
2023-05-17T07:14:03.168Z,212.11
2023-05-17T07:15:09.576Z,211.74
2023-05-17T07:16:02.168Z,212.04
2023-05-17T07:17:02.167Z,212.35
2023-05-17T07:18:02.444Z,210.97
2023-05-17T07:19:02.320Z,209.94
2023-05-17T07:20:02.399Z,208.16
2023-05-17T07:21:02.146Z,204.99
2023-05-17T07:22:02.516Z,203.16
2023-05-17T07:23:02.120Z,204.89
2023-05-17T07:24:02.396Z,200.94
2023-05-17T07:25:02.747Z,199.63
2023-05-17T07:26:02.093Z,200.51
2023-05-17T07:27:03.085Z,199.39
2023-05-17T07:28:02.122Z,198.82
2023-05-17T07:29:02.105Z,194.48
2023-05-17T07:30:02.096Z,196.30
2023-05-17T07:31:03.091Z,194.71
2023-05-17T07:32:02.058Z,192.36
2023-05-17T07:33:02.365Z,192.31
2023-05-17T07:34:02.090Z,193.89
2023-05-17T07:35:03.061Z,192.26
2023-05-17T07:36:03.282Z,188.76
2023-05-17T07:37:02.027Z,190.09
2023-05-17T07:38:02.207Z,189.03
2023-05-17T07:39:02.033Z,188.97
2023-05-17T07:40:02.264Z,187.37
2023-05-17T07:41:02.002Z,190.71
2023-05-17T07:43:01.260Z,201.40
2023-05-17T07:44:02.008Z,204.43
2023-05-17T07:45:01.972Z,207.74
2023-05-17T07:46:09.342Z,209.61
2023-05-17T07:47:02.049Z,210.14
2023-05-17T07:48:05.618Z,212.23
2023-05-17T07:49:02.086Z,210.60
2023-05-17T07:50:01.945Z,212.59
2023-05-17T07:51:01.940Z,216.35
2023-05-17T07:52:01.923Z,221.89
2023-05-17T07:53:02.733Z,225.41
2023-05-17T07:54:02.936Z,223.38
2023-05-17T07:55:02.119Z,222.16
2023-05-17T07:56:01.892Z,220.40
2023-05-17T07:57:01.888Z,219.06
2023-05-17T07:58:02.263Z,218.09
2023-05-17T08:00:01.902Z,215.71
2023-05-17T08:04:02.899Z,216.33
2023-05-17T08:05:02.868Z,216.15
2023-05-17T08:06:01.868Z,217.26
2023-05-17T08:07:01.831Z,217.62
2023-05-17T08:08:02.269Z,217.67
2023-05-17T08:09:01.816Z,217.04
2023-05-17T08:10:02.312Z,215.43
2023-05-17T08:11:01.803Z,214.37
2023-05-17T08:12:01.825Z,211.33
2023-05-17T08:13:02.291Z,211.04
2023-05-17T08:14:01.786Z,211.56
2023-05-17T08:15:01.804Z,210.99
2023-05-17T08:16:12.721Z,208.54
2023-05-17T08:17:01.771Z,208.99
2023-05-17T08:18:04.380Z,209.86
2023-05-17T08:19:01.850Z,209.03
2023-05-17T08:20:02.793Z,209.60
2023-05-17T08:21:01.736Z,209.48
2023-05-17T08:22:01.729Z,210.62
2023-05-17T08:23:01.765Z,208.93
2023-05-17T08:24:03.876Z,209.20
2023-05-17T08:25:01.713Z,208.49
2023-05-17T08:26:01.850Z,209.26
2023-05-17T08:27:01.722Z,205.12
2023-05-17T08:28:04.975Z,203.58
2023-05-17T08:29:01.787Z,203.94
2023-05-17T08:30:01.721Z,204.15
2023-05-17T08:31:01.681Z,204.19
2023-05-17T08:32:09.063Z,203.50
2023-05-17T08:33:05.128Z,204.17
2023-05-17T08:34:01.742Z,204.30
2023-05-17T08:35:02.669Z,204.94
2023-05-17T08:36:01.658Z,205.50
2023-05-17T08:37:01.802Z,204.35
2023-05-17T08:38:01.636Z,202.73
2023-05-17T08:39:01.708Z,203.82
2023-05-17T08:40:01.647Z,202.85
2023-05-17T08:41:01.627Z,200.39
2023-05-17T08:42:01.885Z,197.71
2023-05-17T08:43:01.775Z,197.77
2023-05-17T08:44:01.790Z,199.86
2023-05-17T08:45:01.580Z,194.77
2023-05-17T08:46:01.813Z,195.76
2023-05-17T08:47:01.577Z,194.07
2023-05-17T08:48:01.865Z,194.64
2023-05-17T08:49:01.651Z,194.74
2023-05-17T08:50:01.612Z,192.51
2023-05-17T08:51:02.769Z,192.42
2023-05-17T08:52:01.822Z,191.37
2023-05-17T08:53:01.574Z,193.17
2023-05-17T08:54:01.533Z,190.68
2023-05-17T08:55:01.795Z,191.60
2023-05-17T08:56:01.535Z,187.02
2023-05-17T08:57:01.783Z,189.42
2023-05-17T08:58:02.155Z,190.47
2023-05-17T08:59:01.527Z,189.86
2023-05-17T09:00:01.518Z,186.40
2023-05-17T09:01:01.506Z,187.17
2023-05-17T09:02:01.791Z,187.14
2023-05-17T09:03:01.992Z,187.61
2023-05-17T09:04:02.012Z,186.97
2023-05-17T09:05:01.605Z,187.19
2023-05-17T09:06:01.548Z,186.83
2023-05-17T09:07:01.786Z,184.13
2023-05-17T09:08:01.444Z,185.65
2023-05-17T09:09:01.647Z,184.48
2023-05-17T09:10:01.423Z,184.23
2023-05-17T09:11:02.409Z,182.12
2023-05-17T09:12:01.830Z,182.05
2023-05-17T09:13:01.543Z,179.54
2023-05-17T09:14:01.489Z,180.49
2023-05-17T09:15:01.413Z,181.37
2023-05-17T09:16:01.398Z,179.18
2023-05-17T09:17:01.814Z,179.74
2023-05-17T09:18:02.477Z,181.31
2023-05-17T09:19:09.324Z,178.03
2023-05-17T09:20:02.457Z,178.43
2023-05-17T09:21:01.357Z,178.54
2023-05-17T09:22:01.473Z,179.06
2023-05-17T09:23:01.784Z,179.86
2023-05-17T09:24:08.098Z,176.76
2023-05-17T09:25:01.330Z,178.43
2023-05-17T09:26:01.353Z,179.36
2023-05-17T09:27:01.344Z,180.06
2023-05-17T09:28:01.827Z,179.74
2023-05-17T09:29:01.333Z,181.60
2023-05-17T09:30:01.872Z,187.28
2023-05-17T09:31:01.320Z,196.73
2023-05-17T09:32:01.336Z,156.06
2023-05-17T09:33:01.307Z,67.98
2023-05-17T09:34:01.342Z,14.81
2023-05-17T09:35:01.340Z,0.00
2023-05-17T09:36:01.283Z,0.00
2023-05-17T09:37:01.321Z,0.00
2023-05-17T09:38:01.342Z,0.00
2023-05-17T09:39:01.247Z,8.41
2023-05-17T09:40:01.241Z,37.47
2023-05-17T09:41:01.247Z,30.25
2023-05-17T09:42:01.303Z,25.56
2023-05-17T09:43:01.302Z,25.00
2023-05-17T09:44:01.221Z,27.08
2023-05-17T09:45:01.199Z,26.35
2023-05-17T09:46:01.280Z,32.14
2023-05-17T09:47:01.184Z,26.56
2023-05-17T09:48:04.666Z,48.36
2023-05-17T09:49:01.337Z,48.83
2023-05-17T09:50:01.301Z,50.74
2023-05-17T09:51:02.155Z,60.27
2023-05-17T09:52:01.156Z,83.39
2023-05-17T09:53:01.306Z,117.44
2023-05-17T09:54:01.306Z,133.34
2023-05-17T09:55:01.168Z,150.06
2023-05-17T09:56:01.122Z,160.56
2023-05-17T09:57:01.126Z,166.78
2023-05-17T09:58:01.320Z,179.46
2023-05-17T09:59:01.108Z,182.66
2023-05-17T10:00:01.093Z,187.91
2023-05-17T10:01:01.090Z,195.66
2023-05-17T10:02:01.216Z,203.64
2023-05-17T10:03:01.456Z,205.23
2023-05-17T10:04:01.116Z,207.66
2023-05-17T10:05:00.386Z,224.66
2023-05-17T10:06:01.061Z,226.15
2023-05-17T10:07:01.098Z,226.11
2023-05-17T10:08:01.045Z,237.69
2023-05-17T10:09:01.083Z,243.95
2023-05-17T10:10:01.033Z,245.70
2023-05-17T10:11:01.024Z,250.00
2023-05-17T10:12:01.038Z,250.00
2023-05-17T10:13:01.007Z,249.22
2023-05-17T10:14:01.310Z,250.00
2023-05-17T10:15:01.061Z,250.00
2023-05-17T10:16:01.000Z,249.34
2023-05-17T10:17:01.981Z,250.00
2023-05-17T10:18:01.230Z,249.33
2023-05-17T10:19:01.007Z,249.67
2023-05-17T10:20:01.179Z,250.00
2023-05-17T10:21:00.981Z,250.00
2023-05-17T10:22:11.638Z,249.42
2023-05-17T10:23:00.951Z,249.71
2023-05-17T10:24:00.940Z,250.79
2023-05-17T10:25:01.326Z,252.99
2023-05-17T10:26:00.919Z,258.53
2023-05-17T10:27:00.937Z,268.62
2023-05-17T10:28:00.956Z,250.32
2023-05-17T10:29:00.910Z,249.11
2023-05-17T10:30:01.343Z,248.76
2023-05-17T10:31:00.906Z,248.39
2023-05-17T10:32:00.910Z,249.59
2023-05-17T10:33:01.017Z,250.00
2023-05-17T10:34:00.979Z,250.00
2023-05-17T10:35:11.408Z,249.59
2023-05-17T10:36:00.872Z,249.90
2023-05-17T10:37:00.853Z,251.04
2023-05-17T10:38:01.348Z,251.79
2023-05-17T10:39:04.027Z,255.17
2023-05-17T10:40:00.830Z,250.06
2023-05-17T10:41:02.196Z,251.79
2023-05-17T10:42:13.712Z,255.52
2023-05-17T10:43:00.917Z,250.25
2023-05-17T10:44:00.878Z,252.99
2023-05-17T10:45:01.328Z,257.01
2023-05-17T10:46:00.854Z,264.43
2023-05-17T10:47:00.840Z,276.34
2023-05-17T10:48:01.339Z,261.23
2023-05-17T10:49:01.441Z,249.26
2023-05-17T10:50:00.943Z,247.40
2023-05-17T10:51:04.005Z,250.00
2023-05-17T10:52:00.811Z,250.29
2023-05-17T10:53:00.805Z,251.03
2023-05-17T10:54:02.332Z,253.06
2023-05-17T10:55:16.477Z,257.23
2023-05-17T10:56:00.882Z,250.59
2023-05-17T10:57:00.864Z,252.57
2023-05-17T10:58:00.864Z,255.17
2023-05-17T10:59:00.858Z,259.70
2023-05-17T11:00:00.851Z,267.08
2023-05-17T11:01:00.837Z,251.73
2023-05-17T11:02:00.842Z,250.00
2023-05-17T11:03:00.859Z,250.00
2023-05-17T11:04:00.828Z,248.96
2023-05-17T11:05:00.868Z,248.59
2023-05-17T11:06:00.958Z,250.00
2023-05-17T11:07:02.478Z,249.75
2023-05-17T11:08:00.784Z,249.97
2023-05-17T11:09:01.828Z,250.31
2023-05-17T11:10:00.830Z,251.46
2023-05-17T11:11:00.776Z,253.21
2023-05-17T11:12:00.765Z,256.34
2023-05-17T11:13:00.833Z,250.00
2023-05-17T11:14:00.757Z,248.75
2023-05-17T11:15:00.750Z,245.69
2023-05-17T11:16:00.741Z,243.77
2023-05-17T11:17:00.739Z,243.73
2023-05-17T11:18:00.820Z,243.46
2023-05-17T11:19:01.066Z,242.48
2023-05-17T11:20:00.846Z,243.71
2023-05-17T11:21:00.978Z,240.17
2023-05-17T11:22:00.934Z,239.26
2023-05-17T11:23:00.964Z,235.50
2023-05-17T11:24:01.344Z,235.76
2023-05-17T11:25:01.047Z,232.87
2023-05-17T11:26:09.126Z,232.22
2023-05-17T11:27:01.116Z,232.33
2023-05-17T11:28:01.103Z,232.38
2023-05-17T11:29:01.091Z,231.01
2023-05-17T11:30:01.078Z,229.20
2023-05-17T11:31:01.077Z,226.68
2023-05-17T11:32:01.090Z,225.89
2023-05-17T11:33:01.138Z,223.37
2023-05-17T11:34:01.104Z,221.05
2023-05-17T11:35:01.043Z,220.85
2023-05-17T11:36:01.037Z,217.94
2023-05-17T11:37:01.041Z,221.09
2023-05-17T11:38:01.046Z,221.62
2023-05-17T11:39:08.186Z,220.38
2023-05-17T11:40:01.016Z,220.57
2023-05-17T11:41:01.016Z,220.99
2023-05-17T11:42:01.038Z,221.71
2023-05-17T11:43:00.988Z,222.63
2023-05-17T11:44:00.984Z,223.87
2023-05-17T11:45:00.983Z,225.95
2023-05-17T11:46:00.970Z,224.50
2023-05-17T11:47:00.965Z,223.46
2023-05-17T11:48:01.054Z,223.91
2023-05-17T11:49:00.949Z,225.22
2023-05-17T11:50:00.967Z,226.96
2023-05-17T11:51:02.353Z,229.16
2023-05-17T11:52:00.925Z,233.48
2023-05-17T11:53:00.940Z,234.58
2023-05-17T11:54:00.946Z,233.39
2023-05-17T11:55:00.926Z,233.24
2023-05-17T11:56:00.911Z,234.67
2023-05-17T11:57:00.900Z,235.60
2023-05-17T11:58:00.906Z,235.04
2023-05-17T11:59:00.888Z,233.96
2023-05-17T12:00:01.411Z,237.91
2023-05-17T12:01:00.901Z,239.76
2023-05-17T12:02:00.868Z,241.44
2023-05-17T12:03:00.917Z,243.09
2023-05-17T12:04:00.980Z,244.86
2023-05-17T12:05:01.044Z,244.67
2023-05-17T12:06:00.901Z,246.70
2023-05-17T12:07:00.836Z,247.90
2023-05-17T12:08:00.830Z,246.98
2023-05-17T12:09:00.860Z,247.87
2023-05-17T12:10:00.869Z,246.86
2023-05-17T12:11:00.811Z,248.27
2023-05-17T12:12:00.800Z,249.89
2023-05-17T12:13:00.788Z,247.85
2023-05-17T12:14:00.785Z,250.00
2023-05-17T12:15:00.779Z,249.16
2023-05-17T12:16:00.764Z,250.00
2023-05-17T12:17:00.880Z,248.57
2023-05-17T12:18:00.816Z,249.67
2023-05-17T12:19:00.957Z,249.64
2023-05-17T12:20:00.853Z,250.00
2023-05-17T12:21:00.788Z,249.86
2023-05-17T12:22:00.782Z,249.24
2023-05-17T12:23:00.830Z,249.59
2023-05-17T12:24:00.847Z,249.57
2023-05-17T12:25:00.927Z,250.00
2023-05-17T12:26:00.898Z,249.18
2023-05-17T12:27:00.882Z,247.34
2023-05-17T12:28:00.881Z,250.00
2023-05-17T12:29:00.891Z,249.33
2023-05-17T12:30:00.896Z,250.00
2023-05-17T12:31:00.938Z,249.51
2023-05-17T12:32:00.922Z,249.98
2023-05-17T12:33:01.021Z,247.30
2023-05-17T12:34:01.462Z,249.34
2023-05-17T12:35:00.960Z,249.86
2023-05-17T12:36:00.965Z,249.59
2023-05-17T12:37:00.979Z,249.84
2023-05-17T12:38:01.015Z,249.95
2023-05-17T12:39:01.044Z,247.52
2023-05-17T12:40:01.062Z,250.00
2023-05-17T12:41:01.085Z,250.00
2023-05-17T12:42:01.161Z,249.69
2023-05-17T12:43:01.682Z,248.29
2023-05-17T12:45:00.146Z,248.55
2023-05-17T12:46:03.075Z,247.30
2023-05-17T12:47:01.694Z,247.48
2023-05-17T12:48:01.711Z,248.37
2023-05-17T12:49:01.141Z,248.73
2023-05-17T12:50:01.106Z,250.18
2023-05-17T12:51:01.381Z,252.28